Time,TemperatureF,DewpointF,PressureIn,WindDirection,WindDirectionDegrees,WindSpeedMPH,WindSpeedGustMPH,Humidity,HourlyPrecipIn,Conditions,Clouds,dailyrainin,SoftwareType,DateUTC
2013-05-09 00:01:00,56.4,55.6,29.95,WNW,300,0.0,0.0,97,0.00,,---,0.00,VWS V14.01,2013-05-09 04:01:00,
2013-05-09 00:02:00,56.3,55.5,29.95,WNW,300,0.0,0.0,97,0.00,,---,0.00,VWS V14.01,2013-05-09 04:02:00,
2013-05-09 00:07:00,56.3,55.5,29.95,WNW,300,0.0,0.0,97,0.00,,---,0.00,VWS V14.01,2013-05-09 04:07:00,
2013-05-09 00:12:00,56.0,55.2,29.95,WNW,300,0.0,0.0,97,0.00,,---,0.00,VWS V14.01,2013-05-09 04:12:00,
2013-05-09 00:17:00,55.6,54.8,29.95,WNW,300,0.0,0.0,97,0.00,,---,0.00,VWS V14.01,2013-05-09 04:17:00,
2013-05-09 00:22:00,55.3,54.5,29.95,WNW,300,0.0,1.0,97,0.00,,---,0.00,VWS V14.01,2013-05-09 04:22:00,
2013-05-09 00:27:00,55.2,54.4,29.95,WNW,300,0.0,1.0,97,0.00,,---,0.00,VWS V14.01,2013-05-09 04:27:00,
2013-05-09 00:32:00,55.1,54.3,29.95,WNW,300,0.0,0.0,97,0.00,,---,0.00,VWS V14.01,2013-05-09 04:32:00,
2013-05-09 00:37:00,54.9,54.1,29.95,WNW,300,0.0,0.0,97,0.00,,---,0.00,VWS V14.01,2013-05-09 04:37:00,
2013-05-09 00:42:00,54.6,53.8,29.95,WNW,300,0.0,0.0,97,0.00,,---,0.00,VWS V14.01,2013-05-09 04:42:00,
2013-05-09 00:47:00,54.3,53.5,29.95,WNW,300,0.0,0.0,97,0.00,,---,0.00,VWS V14.01,2013-05-09 04:47:00,
2013-05-09 00:52:00,54.2,53.4,29.95,WNW,300,0.0,0.0,97,0.00,,---,0.00,VWS V14.01,2013-05-09 04:52:00,
2013-05-09 00:58:00,54.2,53.4,29.95,WNW,300,0.0,0.0,97,0.00,,---,0.00,VWS V14.01,2013-05-09 04:58:00,
2013-05-09 01:03:00,54.1,53.3,29.95,WNW,300,0.0,0.0,97,0.00,,---,0.00,VWS V14.01,2013-05-09 05:03:00,
2013-05-09 01:08:00,54.0,53.2,29.95,WNW,300,0.0,0.0,97,0.00,,---,0.00,VWS V14.01,2013-05-09 05:08:00,
2013-05-09 01:13:00,54.0,53.5,29.95,WNW,300,0.0,0.0,98,0.00,,---,0.00,VWS V14.01,2013-05-09 05:13:00,
2013-05-09 01:18:00,54.1,53.5,29.95,WNW,300,0.0,0.0,98,0.00,,---,0.00,VWS V14.01,2013-05-09 05:18:00,
2013-05-09 01:23:00,54.1,53.5,29.95,WNW,300,0.0,1.0,98,0.00,,---,0.00,VWS V14.01,2013-05-09 05:23:00,
2013-05-09 01:28:00,54.1,53.5,29.95,WNW,300,0.0,1.0,98,0.00,,---,0.00,VWS V14.01,2013-05-09 05:28:00,
2013-05-09 01:33:00,54.8,54.2,29.95,WNW,300,0.0,1.0,98,0.00,,---,0.00,VWS V14.01,2013-05-09 05:33:00,
2013-05-09 01:38:00,55.0,54.5,29.95,WNW,300,0.0,1.0,98,0.00,,---,0.00,VWS V14.01,2013-05-09 05:38:00,
2013-05-09 01:43:00,55.1,54.5,29.95,WNW,300,0.0,2.0,98,0.00,,---,0.00,VWS V14.01,2013-05-09 05:43:00,
2013-05-09 01:48:00,55.0,54.5,29.94,WNW,300,0.0,2.0,98,0.00,,---,0.00,VWS V14.01,2013-05-09 05:48:00,
2013-05-09 01:54:00,54.6,54.0,29.94,WNW,300,0.0,0.0,98,0.00,,---,0.00,VWS V14.01,2013-05-09 05:54:00,
2013-05-09 01:59:00,54.4,53.8,29.94,WNW,300,0.0,1.0,98,0.00,,---,0.00,VWS V14.01,2013-05-09 05:59:00,
2013-05-09 02:04:00,54.2,53.7,29.94,WNW,300,0.0,0.0,98,0.00,,---,0.00,VWS V14.01,2013-05-09 06:04:00,
2013-05-09 02:09:00,54.2,53.7,29.94,WNW,300,0.0,1.0,98,0.00,,---,0.00,VWS V14.01,2013-05-09 06:09:00,
2013-05-09 02:14:00,54.0,53.5,29.94,WNW,300,0.0,1.0,98,0.00,,---,0.00,VWS V14.01,2013-05-09 06:14:00,
2013-05-09 02:19:00,53.9,53.3,29.94,WNW,300,0.0,1.0,98,0.00,,---,0.00,VWS V14.01,2013-05-09 06:19:00,
2013-05-09 02:24:00,53.8,53.2,29.94,WNW,300,0.0,1.0,98,0.00,,---,0.00,VWS V14.01,2013-05-09 06:24:00,
2013-05-09 02:29:00,53.8,53.2,29.94,WNW,300,0.0,1.0,98,0.00,,---,0.00,VWS V14.01,2013-05-09 06:29:00,
2013-05-09 02:34:00,53.8,53.2,29.94,WNW,300,0.0,2.0,98,0.00,,---,0.00,VWS V14.01,2013-05-09 06:34:00,
2013-05-09 02:39:00,54.0,53.5,29.94,WNW,300,2.0,2.0,98,0.00,,---,0.00,VWS V14.01,2013-05-09 06:39:00,
2013-05-09 02:45:00,54.1,53.5,29.94,WNW,300,0.0,2.0,98,0.00,,---,0.00,VWS V14.01,2013-05-09 06:45:00,
2013-05-09 02:50:00,54.1,53.5,29.94,WNW,300,0.0,2.0,98,0.00,,---,0.00,VWS V14.01,2013-05-09 06:50:00,
2013-05-09 02:55:00,53.8,53.2,29.94,WNW,300,0.0,1.0,98,0.00,,---,0.00,VWS V14.01,2013-05-09 06:55:00,
2013-05-09 03:00:00,53.7,53.2,29.93,WNW,300,0.0,2.0,98,0.00,,---,0.00,VWS V14.01,2013-05-09 07:00:00,
2013-05-09 03:05:00,53.8,53.2,29.93,WNW,300,0.0,4.0,98,0.00,,---,0.00,VWS V14.01,2013-05-09 07:05:00,
2013-05-09 03:10:00,54.2,53.7,29.93,WNW,300,0.0,0.0,98,0.00,,---,0.00,VWS V14.01,2013-05-09 07:10:00,
2013-05-09 03:15:00,54.1,53.5,29.94,WNW,300,0.0,2.0,98,0.00,,---,0.00,VWS V14.01,2013-05-09 07:15:00,
2013-05-09 03:20:00,54.0,53.5,29.94,WNW,300,0.0,1.0,98,0.00,,---,0.00,VWS V14.01,2013-05-09 07:20:00,
2013-05-09 03:25:00,53.9,53.3,29.94,WNW,300,0.0,1.0,98,0.00,,---,0.00,VWS V14.01,2013-05-09 07:25:00,
2013-05-09 03:30:00,53.7,53.2,29.93,WNW,300,0.0,0.0,98,0.00,,---,0.00,VWS V14.01,2013-05-09 07:30:00,
2013-05-09 03:36:00,53.6,53.0,29.93,WNW,300,0.0,0.0,98,0.00,,---,0.00,VWS V14.01,2013-05-09 07:36:00,
2013-05-09 03:41:00,53.5,53.0,29.93,WNW,300,0.0,0.0,98,0.00,,---,0.00,VWS V14.01,2013-05-09 07:41:00,
2013-05-09 03:46:00,53.2,52.7,29.93,WNW,300,0.0,0.0,98,0.00,,---,0.00,VWS V14.01,2013-05-09 07:46:00,
2013-05-09 03:51:00,52.9,52.3,29.93,WNW,300,0.0,0.0,98,0.00,,---,0.00,VWS V14.01,2013-05-09 07:51:00,
2013-05-09 03:56:00,52.6,52.0,29.93,WNW,300,0.0,0.0,98,0.00,,---,0.00,VWS V14.01,2013-05-09 07:56:00,
2013-05-09 04:01:00,52.1,51.3,29.94,WNW,300,0.0,0.0,97,0.00,,---,0.00,VWS V14.01,2013-05-09 08:01:00,
2013-05-09 04:06:00,51.7,51.2,29.94,WNW,300,0.0,0.0,98,0.00,,---,0.00,VWS V14.01,2013-05-09 08:06:00,
2013-05-09 04:11:00,51.5,50.7,29.94,WNW,300,0.0,0.0,97,0.00,,---,0.00,VWS V14.01,2013-05-09 08:11:00,
2013-05-09 04:16:00,51.4,50.9,29.94,WNW,300,0.0,0.0,98,0.00,,---,0.00,VWS V14.01,2013-05-09 08:16:00,
2013-05-09 04:21:00,51.2,50.7,29.94,WNW,300,0.0,0.0,98,0.00,,---,0.00,VWS V14.01,2013-05-09 08:21:00,
2013-05-09 04:27:00,51.0,50.5,29.94,WNW,300,0.0,0.0,98,0.00,,---,0.00,VWS V14.01,2013-05-09 08:27:00,
2013-05-09 04:32:00,51.0,50.5,29.94,WNW,300,0.0,0.0,98,0.00,,---,0.00,VWS V14.01,2013-05-09 08:32:00,
2013-05-09 04:37:00,51.1,50.6,29.94,WNW,300,0.0,0.0,98,0.00,,---,0.00,VWS V14.01,2013-05-09 08:37:00,
2013-05-09 04:42:00,51.1,50.6,29.94,WNW,300,0.0,0.0,98,0.00,,---,0.00,VWS V14.01,2013-05-09 08:42:00,
2013-05-09 04:47:00,51.2,50.7,29.94,WNW,300,0.0,0.0,98,0.00,,---,0.00,VWS V14.01,2013-05-09 08:47:00,
2013-05-09 04:52:00,51.3,50.8,29.94,WNW,300,0.0,0.0,98,0.00,,---,0.00,VWS V14.01,2013-05-09 08:52:00,
2013-05-09 04:57:00,51.3,50.8,29.94,WNW,300,0.0,0.0,98,0.00,,---,0.00,VWS V14.01,2013-05-09 08:57:00,
2013-05-09 05:02:00,51.2,50.7,29.94,WNW,300,0.0,0.0,98,0.00,,---,0.00,VWS V14.01,2013-05-09 09:02:00,
2013-05-09 05:07:00,50.8,50.3,29.94,WNW,300,0.0,0.0,98,0.00,,---,0.00,VWS V14.01,2013-05-09 09:07:00,
2013-05-09 05:12:00,50.6,50.1,29.94,WNW,300,0.0,0.0,98,0.00,,---,0.00,VWS V14.01,2013-05-09 09:12:00,
2013-05-09 05:17:00,50.6,50.1,29.94,WNW,300,0.0,0.0,98,0.00,,---,0.00,VWS V14.01,2013-05-09 09:17:00,
2013-05-09 05:23:00,50.5,50.0,29.94,WNW,300,0.0,0.0,98,0.00,,---,0.00,VWS V14.01,2013-05-09 09:23:00,
2013-05-09 05:28:00,50.5,50.0,29.94,WNW,300,0.0,1.0,98,0.00,,---,0.00,VWS V14.01,2013-05-09 09:28:00,
2013-05-09 05:33:00,50.3,49.8,29.94,WNW,300,0.0,0.0,98,0.00,,---,0.00,VWS V14.01,2013-05-09 09:33:00,
2013-05-09 05:38:00,50.1,49.6,29.94,WNW,300,0.0,0.0,98,0.00,,---,0.00,VWS V14.01,2013-05-09 09:38:00,
2013-05-09 05:43:00,50.2,49.7,29.94,WNW,300,0.0,0.0,98,0.00,,---,0.00,VWS V14.01,2013-05-09 09:43:00,
2013-05-09 05:48:00,50.1,49.6,29.94,WNW,300,0.0,0.0,98,0.00,,---,0.00,VWS V14.01,2013-05-09 09:48:00,
2013-05-09 05:53:00,50.0,49.5,29.94,WNW,300,0.0,0.0,98,0.00,,---,0.00,VWS V14.01,2013-05-09 09:53:00,
2013-05-09 05:58:00,49.9,49.4,29.94,WNW,300,0.0,0.0,98,0.00,,---,0.00,VWS V14.01,2013-05-09 09:58:00,
2013-05-09 06:03:00,49.9,49.4,29.95,WNW,300,0.0,0.0,98,0.00,,---,0.00,VWS V14.01,2013-05-09 10:03:00,
2013-05-09 06:08:00,49.8,49.3,29.95,WNW,300,0.0,0.0,98,0.00,,---,0.00,VWS V14.01,2013-05-09 10:08:00,
2013-05-09 06:14:00,49.7,49.2,29.95,WNW,300,0.0,0.0,98,0.00,,---,0.00,VWS V14.01,2013-05-09 10:14:00,
2013-05-09 06:19:00,49.7,49.2,29.96,WNW,300,0.0,0.0,98,0.00,,---,0.00,VWS V14.01,2013-05-09 10:19:00,
2013-05-09 06:24:00,49.8,49.3,29.96,WNW,300,0.0,0.0,98,0.00,,---,0.00,VWS V14.01,2013-05-09 10:24:00,
2013-05-09 06:29:00,50.0,49.5,29.96,WNW,300,0.0,0.0,98,0.00,,---,0.00,VWS V14.01,2013-05-09 10:29:00,
2013-05-09 06:34:00,50.4,49.9,29.97,WNW,300,0.0,0.0,98,0.00,,---,0.00,VWS V14.01,2013-05-09 10:34:00,
2013-05-09 06:39:00,51.0,50.5,29.97,WNW,300,0.0,1.0,98,0.00,,---,0.00,VWS V14.01,2013-05-09 10:39:00,
2013-05-09 06:44:00,51.1,50.6,29.97,WNW,300,0.0,0.0,98,0.00,,---,0.00,VWS V14.01,2013-05-09 10:44:00,
2013-05-09 06:49:00,50.8,50.3,29.97,WNW,300,0.0,0.0,98,0.00,,---,0.00,VWS V14.01,2013-05-09 10:49:00,
2013-05-09 06:54:00,50.6,50.1,29.97,WNW,300,0.0,0.0,98,0.00,,---,0.00,VWS V14.01,2013-05-09 10:54:00,
2013-05-09 06:59:00,50.7,50.2,29.99,WNW,300,0.0,0.0,98,0.00,,---,0.00,VWS V14.01,2013-05-09 10:59:00,
2013-05-09 07:05:00,50.7,50.2,29.99,WNW,300,0.0,0.0,98,0.00,,---,0.00,VWS V14.01,2013-05-09 11:05:00,
2013-05-09 07:10:00,51.0,50.5,29.99,WNW,300,0.0,1.0,98,0.00,,---,0.00,VWS V14.01,2013-05-09 11:10:00,
2013-05-09 07:15:00,51.4,50.9,29.99,WNW,300,0.0,0.0,98,0.00,,---,0.00,VWS V14.01,2013-05-09 11:15:00,
2013-05-09 07:20:00,51.5,51.0,29.99,WNW,300,0.0,0.0,98,0.00,,---,0.00,VWS V14.01,2013-05-09 11:20:00,
2013-05-09 07:25:00,51.7,51.2,29.99,WNW,300,0.0,0.0,98,0.00,,---,0.00,VWS V14.01,2013-05-09 11:25:00,
2013-05-09 07:30:00,52.1,51.5,29.99,WNW,300,0.0,0.0,98,0.00,,---,0.00,VWS V14.01,2013-05-09 11:30:00,
2013-05-09 07:35:00,52.4,51.8,29.99,WNW,300,0.0,0.0,98,0.00,,---,0.00,VWS V14.01,2013-05-09 11:35:00,
2013-05-09 07:40:00,52.9,52.3,29.99,WNW,300,0.0,0.0,98,0.00,,---,0.00,VWS V14.01,2013-05-09 11:40:00,
2013-05-09 07:45:00,53.1,52.5,30.00,WNW,300,0.0,1.0,98,0.00,,---,0.00,VWS V14.01,2013-05-09 11:45:00,
2013-05-09 07:50:00,53.2,52.7,30.00,WNW,300,0.0,1.0,98,0.00,,---,0.00,VWS V14.01,2013-05-09 11:50:00,
2013-05-09 07:55:00,53.4,52.8,30.00,WNW,300,0.0,1.0,98,0.00,,---,0.00,VWS V14.01,2013-05-09 11:55:00,
2013-05-09 08:01:00,53.6,53.0,30.00,WNW,300,0.0,2.0,98,0.00,,---,0.00,VWS V14.01,2013-05-09 12:01:00,
2013-05-09 08:06:00,53.9,53.3,30.00,WNW,300,1.0,3.0,98,0.00,,---,0.00,VWS V14.01,2013-05-09 12:06:00,
2013-05-09 08:11:00,54.3,53.8,30.00,WNW,300,1.0,1.0,98,0.00,,---,0.00,VWS V14.01,2013-05-09 12:11:00,
2013-05-09 08:16:00,54.7,54.2,30.00,WNW,295,0.0,3.0,98,0.00,,---,0.00,VWS V14.01,2013-05-09 12:16:00,
2013-05-09 08:21:00,55.2,54.7,30.00,WNW,294,0.0,3.0,98,0.00,,---,0.00,VWS V14.01,2013-05-09 12:21:00,
2013-05-09 08:26:00,55.4,54.8,30.00,WNW,294,0.0,3.0,98,0.00,,---,0.00,VWS V14.01,2013-05-09 12:26:00,
2013-05-09 08:31:00,55.9,55.3,30.00,WNW,284,0.0,4.0,98,0.00,,---,0.00,VWS V14.01,2013-05-09 12:31:00,
2013-05-09 08:36:00,55.9,55.3,30.00,West,272,2.0,5.0,98,0.00,,---,0.00,VWS V14.01,2013-05-09 12:36:00,
2013-05-09 08:41:00,56.4,55.8,30.00,West,273,0.0,2.0,98,0.00,,---,0.00,VWS V14.01,2013-05-09 12:41:00,
2013-05-09 08:46:00,57.2,56.6,30.01,West,273,0.0,3.0,98,0.00,,---,0.00,VWS V14.01,2013-05-09 12:46:00,
2013-05-09 08:51:00,57.5,56.7,30.01,West,269,0.0,3.0,97,0.00,,---,0.00,VWS V14.01,2013-05-09 12:51:00,
2013-05-09 08:57:00,58.4,57.3,30.01,West,269,0.0,3.0,96,0.00,,---,0.00,VWS V14.01,2013-05-09 12:57:00,
2013-05-09 09:02:00,58.9,57.2,30.01,West,269,0.0,1.0,94,0.00,,---,0.00,VWS V14.01,2013-05-09 13:02:00,
2013-05-09 09:07:00,59.6,57.3,30.01,West,269,1.0,3.0,92,0.00,,---,0.00,VWS V14.01,2013-05-09 13:07:00,
2013-05-09 09:12:00,60.5,57.9,30.01,WSW,244,2.0,3.0,91,0.00,,---,0.00,VWS V14.01,2013-05-09 13:12:00,
2013-05-09 09:17:00,61.5,58.8,30.01,WSW,245,2.0,3.0,91,0.00,,---,0.00,VWS V14.01,2013-05-09 13:17:00,
2013-05-09 09:22:00,62.1,58.5,30.01,WSW,248,2.0,3.0,88,0.00,,---,0.00,VWS V14.01,2013-05-09 13:22:00,
2013-05-09 09:27:00,62.6,58.7,30.01,WSW,251,2.0,3.0,87,0.00,,---,0.00,VWS V14.01,2013-05-09 13:27:00,
2013-05-09 09:32:00,63.2,59.3,30.02,WSW,254,0.0,1.0,87,0.00,,---,0.00,VWS V14.01,2013-05-09 13:32:00,
2013-05-09 09:37:00,63.9,59.3,30.02,WSW,248,1.0,3.0,85,0.00,,---,0.00,VWS V14.01,2013-05-09 13:37:00,
2013-05-09 09:42:00,65.1,61.5,30.02,West,267,0.0,5.0,88,0.00,,---,0.00,VWS V14.01,2013-05-09 13:42:00,
2013-05-09 09:47:00,65.5,59.2,30.01,WSW,239,2.0,7.0,80,0.00,,---,0.00,VWS V14.01,2013-05-09 13:47:00,
2013-05-09 09:52:00,65.9,58.9,30.01,WNW,284,1.0,3.0,78,0.00,,---,0.00,VWS V14.01,2013-05-09 13:52:00,
2013-05-09 09:57:00,66.6,59.5,30.01,WNW,292,4.0,4.0,78,0.00,,---,0.00,VWS V14.01,2013-05-09 13:57:00,
2013-05-09 10:03:00,66.6,59.5,30.01,West,279,1.0,4.0,78,0.00,,---,0.00,VWS V14.01,2013-05-09 14:03:00,
2013-05-09 10:08:00,67.0,59.2,30.01,WNW,297,2.0,6.0,76,0.00,,---,0.00,VWS V14.01,2013-05-09 14:08:00,
2013-05-09 10:13:00,67.2,60.5,30.01,WNW,291,4.0,5.0,79,0.00,,---,0.00,VWS V14.01,2013-05-09 14:13:00,
2013-05-09 10:18:00,67.8,60.0,30.02,West,259,2.0,6.0,76,0.00,,---,0.00,VWS V14.01,2013-05-09 14:18:00,
2013-05-09 10:23:00,68.0,60.5,30.02,South,185,2.0,6.0,77,0.00,,---,0.00,VWS V14.01,2013-05-09 14:23:00,
2013-05-09 10:28:00,69.0,61.5,30.02,West,262,2.0,6.0,77,0.00,,---,0.00,VWS V14.01,2013-05-09 14:28:00,
2013-05-09 10:33:00,69.4,60.0,30.01,SSW,192,2.0,5.0,72,0.00,,---,0.00,VWS V14.01,2013-05-09 14:33:00,
2013-05-09 10:38:00,69.5,61.2,30.01,WSW,245,1.0,5.0,75,0.00,,---,0.00,VWS V14.01,2013-05-09 14:38:00,
2013-05-09 10:43:00,69.7,60.3,30.01,West,281,2.0,4.0,72,0.00,,---,0.00,VWS V14.01,2013-05-09 14:43:00,
2013-05-09 10:48:00,70.1,59.5,30.01,West,269,2.0,4.0,69,0.00,,---,0.00,VWS V14.01,2013-05-09 14:48:00,
2013-05-09 10:54:00,70.5,61.4,30.01,West,270,1.0,4.0,73,0.00,,---,0.00,VWS V14.01,2013-05-09 14:54:00,
2013-05-09 10:59:00,70.4,59.8,30.01,West,260,0.0,5.0,69,0.00,,---,0.00,VWS V14.01,2013-05-09 14:59:00,
2013-05-09 11:04:00,70.6,60.3,30.01,SW,232,3.0,6.0,70,0.00,,---,0.00,VWS V14.01,2013-05-09 15:04:00,
2013-05-09 11:09:00,70.8,58.9,30.01,SSW,211,2.0,6.0,66,0.00,,---,0.00,VWS V14.01,2013-05-09 15:09:00,
2013-05-09 11:14:00,70.9,59.8,30.01,WSW,256,0.0,3.0,68,0.00,,---,0.00,VWS V14.01,2013-05-09 15:14:00,
2013-05-09 11:19:00,71.5,60.8,30.01,WSW,251,0.0,3.0,69,0.00,,---,0.00,VWS V14.01,2013-05-09 15:19:00,
2013-05-09 11:24:00,72.2,61.1,30.01,WSW,246,3.0,6.0,68,0.00,,---,0.00,VWS V14.01,2013-05-09 15:24:00,
2013-05-09 11:29:00,72.3,60.3,30.01,West,270,2.0,6.0,66,0.00,,---,0.00,VWS V14.01,2013-05-09 15:29:00,
2013-05-09 11:34:00,72.1,59.3,30.01,WSW,248,0.0,5.0,64,0.00,,---,0.00,VWS V14.01,2013-05-09 15:34:00,
2013-05-09 11:39:00,72.7,59.8,30.01,WNW,286,2.0,5.0,64,0.00,,---,0.00,VWS V14.01,2013-05-09 15:39:00,
2013-05-09 11:44:00,71.5,58.3,30.01,South,187,2.0,5.0,63,0.00,,---,0.00,VWS V14.01,2013-05-09 15:44:00,
2013-05-09 11:49:00,71.8,59.4,30.01,SSW,204,0.0,5.0,65,0.00,,---,0.00,VWS V14.01,2013-05-09 15:49:00,
2013-05-09 11:54:00,72.8,59.5,30.01,SE,146,3.0,7.0,63,0.00,,---,0.00,VWS V14.01,2013-05-09 15:54:00,
2013-05-09 11:59:00,73.6,59.8,30.01,West,265,4.0,8.0,62,0.00,,---,0.00,VWS V14.01,2013-05-09 15:59:00,
2013-05-09 12:05:00,73.6,60.2,30.01,WSW,256,2.0,6.0,63,0.00,,---,0.00,VWS V14.01,2013-05-09 16:05:00,
2013-05-09 12:10:00,74.5,62.0,30.01,WSW,256,0.0,6.0,65,0.00,,---,0.00,VWS V14.01,2013-05-09 16:10:00,
2013-05-09 12:15:00,73.9,61.0,30.01,WSW,256,4.0,6.0,64,0.00,,---,0.00,VWS V14.01,2013-05-09 16:15:00,
2013-05-09 12:20:00,74.0,61.5,30.01,West,264,1.0,7.0,65,0.00,,---,0.00,VWS V14.01,2013-05-09 16:20:00,
2013-05-09 12:25:00,74.3,59.1,30.01,West,260,0.0,9.0,59,0.00,,---,0.00,VWS V14.01,2013-05-09 16:25:00,
2013-05-09 12:30:00,74.7,59.4,30.01,WSW,254,1.0,1.0,59,0.00,,---,0.00,VWS V14.01,2013-05-09 16:30:00,
2013-05-09 12:35:00,75.3,60.5,30.01,NNE,20,1.0,3.0,60,0.00,,---,0.00,VWS V14.01,2013-05-09 16:35:00,
2013-05-09 12:40:00,75.2,58.9,30.01,SSW,208,4.0,5.0,57,0.00,,---,0.00,VWS V14.01,2013-05-09 16:40:00,
2013-05-09 12:45:00,74.8,59.0,30.01,WSW,256,0.0,5.0,58,0.00,,---,0.00,VWS V14.01,2013-05-09 16:45:00,
2013-05-09 12:50:00,74.7,59.0,30.01,West,273,1.0,3.0,58,0.00,,---,0.00,VWS V14.01,2013-05-09 16:50:00,
2013-05-09 12:55:00,75.2,58.9,30.01,West,265,0.0,8.0,57,0.00,,---,0.00,VWS V14.01,2013-05-09 16:55:00,
2013-05-09 13:00:00,75.3,59.0,30.00,SSW,213,3.0,5.0,57,0.00,,---,0.00,VWS V14.01,2013-05-09 17:00:00,
2013-05-09 13:05:00,76.0,60.2,30.00,WSW,248,0.0,6.0,58,0.00,,---,0.00,VWS V14.01,2013-05-09 17:05:00,
2013-05-09 13:11:00,75.6,57.8,30.00,South,179,0.0,3.0,54,0.00,,---,0.00,VWS V14.01,2013-05-09 17:11:00,
2013-05-09 13:16:00,75.4,60.6,30.00,WNW,294,2.0,7.0,60,0.00,,---,0.00,VWS V14.01,2013-05-09 17:16:00,
2013-05-09 13:21:00,76.6,58.7,30.00,NNW,338,0.0,3.0,54,0.00,,---,0.00,VWS V14.01,2013-05-09 17:21:00,
2013-05-09 13:26:00,75.8,59.0,30.00,South,175,2.0,3.0,56,0.00,,---,0.00,VWS V14.01,2013-05-09 17:26:00,
2013-05-09 13:31:00,75.6,58.8,30.00,SW,220,1.0,6.0,56,0.00,,---,0.00,VWS V14.01,2013-05-09 17:31:00,
2013-05-09 13:36:00,76.1,60.3,30.00,SW,225,0.0,6.0,58,0.00,,---,0.00,VWS V14.01,2013-05-09 17:36:00,
2013-05-09 13:41:00,77.7,61.3,30.00,WSW,240,3.0,6.0,57,0.00,,---,0.00,VWS V14.01,2013-05-09 17:41:00,
2013-05-09 13:46:00,76.7,58.8,30.00,SW,223,2.0,6.0,54,0.00,,---,0.00,VWS V14.01,2013-05-09 17:46:00,
2013-05-09 13:51:00,77.4,58.4,30.00,SW,219,5.0,8.0,52,0.00,,---,0.00,VWS V14.01,2013-05-09 17:51:00,
2013-05-09 13:56:00,76.4,59.1,30.00,SSW,211,0.0,10.0,55,0.00,,---,0.00,VWS V14.01,2013-05-09 17:56:00,
2013-05-09 14:01:00,77.3,58.8,30.00,SSW,204,4.0,10.0,53,0.00,,---,0.00,VWS V14.01,2013-05-09 18:01:00,
2013-05-09 14:06:00,78.3,59.8,30.00,WSW,256,0.0,11.0,53,0.00,,---,0.00,VWS V14.01,2013-05-09 18:06:00,
2013-05-09 14:12:00,77.5,56.9,30.00,SW,234,0.0,4.0,49,0.00,,---,0.00,VWS V14.01,2013-05-09 18:12:00,
2013-05-09 14:17:00,78.5,58.9,29.99,WSW,253,0.0,6.0,51,0.00,,---,0.00,VWS V14.01,2013-05-09 18:17:00,
2013-05-09 14:22:00,78.3,57.0,29.99,WSW,254,6.0,6.0,48,0.00,,---,0.00,VWS V14.01,2013-05-09 18:22:00,
2013-05-09 14:27:00,78.0,57.9,29.99,WNW,303,2.0,10.0,50,0.00,,---,0.00,VWS V14.01,2013-05-09 18:27:00,
2013-05-09 14:32:00,77.2,56.6,29.99,SSW,207,2.0,3.0,49,0.00,,---,0.00,VWS V14.01,2013-05-09 18:32:00,
2013-05-09 14:37:00,77.4,58.4,29.99,SW,220,2.0,5.0,52,0.00,,---,0.00,VWS V14.01,2013-05-09 18:37:00,
2013-05-09 14:42:00,76.3,56.9,29.99,SW,223,0.0,3.0,51,0.00,,---,0.00,VWS V14.01,2013-05-09 18:42:00,
2013-05-09 14:47:00,76.0,57.7,29.99,SSW,208,5.0,7.0,53,0.00,,---,0.00,VWS V14.01,2013-05-09 18:47:00,
2013-05-09 14:52:00,76.5,57.0,29.99,West,267,0.0,2.0,51,0.00,,---,0.00,VWS V14.01,2013-05-09 18:52:00,
2013-05-09 14:57:00,77.8,56.6,29.99,WSW,242,2.0,10.0,48,0.00,,---,0.00,VWS V14.01,2013-05-09 18:57:00,
2013-05-09 15:03:00,77.9,58.3,29.99,WSW,238,1.0,2.0,51,0.00,,---,0.00,VWS V14.01,2013-05-09 19:03:00,
2013-05-09 15:08:00,78.2,60.2,29.99,South,177,5.0,6.0,54,0.00,,---,0.00,VWS V14.01,2013-05-09 19:08:00,
2013-05-09 15:13:00,78.6,59.0,29.99,WSW,253,0.0,4.0,51,0.00,,---,0.00,VWS V14.01,2013-05-09 19:13:00,
2013-05-09 15:18:00,78.9,56.4,29.98,WSW,247,4.0,7.0,46,0.00,,---,0.00,VWS V14.01,2013-05-09 19:18:00,
2013-05-09 15:23:00,78.9,59.2,29.98,SW,235,2.0,6.0,51,0.00,,---,0.00,VWS V14.01,2013-05-09 19:23:00,
2013-05-09 15:28:00,79.7,59.4,29.98,WNW,289,2.0,6.0,50,0.00,,---,0.00,VWS V14.01,2013-05-09 19:28:00,
2013-05-09 15:33:00,79.7,61.1,29.97,West,272,2.0,8.0,53,0.00,,---,0.00,VWS V14.01,2013-05-09 19:33:00,
2013-05-09 15:38:00,79.6,57.6,29.97,SSW,200,1.0,8.0,47,0.00,,---,0.00,VWS V14.01,2013-05-09 19:38:00,
2013-05-09 15:43:00,79.1,56.6,29.97,NW,315,3.0,7.0,46,0.00,,---,0.00,VWS V14.01,2013-05-09 19:43:00,
2013-05-09 15:48:00,78.0,57.9,29.97,SW,234,3.0,10.0,50,0.00,,---,0.00,VWS V14.01,2013-05-09 19:48:00,
2013-05-09 15:54:00,78.2,56.3,29.97,SSE,148,1.0,9.0,47,0.00,,---,0.00,VWS V14.01,2013-05-09 19:54:00,
2013-05-09 15:59:00,78.7,56.2,29.97,SW,232,7.0,11.0,46,0.00,,---,0.00,VWS V14.01,2013-05-09 19:59:00,
2013-05-09 16:04:00,78.2,57.5,29.96,West,263,2.0,6.0,49,0.00,,---,0.00,VWS V14.01,2013-05-09 20:04:00,
2013-05-09 16:09:00,78.5,57.2,29.96,West,266,0.0,6.0,48,0.00,,---,0.00,VWS V14.01,2013-05-09 20:09:00,
2013-05-09 16:14:00,79.3,57.3,29.96,West,266,3.0,4.0,47,0.00,,---,0.00,VWS V14.01,2013-05-09 20:14:00,
2013-05-09 16:19:00,78.9,57.0,29.96,West,272,5.0,7.0,47,0.00,,---,0.00,VWS V14.01,2013-05-09 20:19:00,
2013-05-09 16:24:00,78.2,56.9,29.96,West,264,0.0,5.0,48,0.00,,---,0.00,VWS V14.01,2013-05-09 20:24:00,
2013-05-09 16:29:00,79.4,59.2,29.95,SW,227,0.0,5.0,50,0.00,,---,0.00,VWS V14.01,2013-05-09 20:29:00,
2013-05-09 16:34:00,79.6,55.8,29.95,SW,219,0.0,4.0,44,0.00,,---,0.00,VWS V14.01,2013-05-09 20:34:00,
2013-05-09 16:40:00,80.0,56.2,29.95,WSW,241,2.0,4.0,44,0.00,,---,0.00,VWS V14.01,2013-05-09 20:40:00,
2013-05-09 16:45:00,79.9,56.7,29.94,WSW,238,0.0,4.0,45,0.00,,---,0.00,VWS V14.01,2013-05-09 20:45:00,
2013-05-09 16:50:00,79.9,55.4,29.94,West,259,3.0,8.0,43,0.00,,---,0.00,VWS V14.01,2013-05-09 20:50:00,
2013-05-09 16:55:00,79.4,55.6,29.94,WNW,291,1.0,6.0,44,0.00,,---,0.00,VWS V14.01,2013-05-09 20:55:00,
2013-05-09 17:00:00,80.1,58.1,29.94,WSW,248,1.0,1.0,47,0.00,,---,0.00,VWS V14.01,2013-05-09 21:00:00,
2013-05-09 17:05:00,80.1,55.6,29.94,SW,227,4.0,10.0,43,0.00,,---,0.00,VWS V14.01,2013-05-09 21:05:00,
2013-05-09 17:10:00,79.7,55.9,29.94,WSW,244,6.0,6.0,44,0.00,,---,0.00,VWS V14.01,2013-05-09 21:10:00,
2013-05-09 17:15:00,79.7,55.9,29.94,SSW,196,1.0,7.0,44,0.00,,---,0.00,VWS V14.01,2013-05-09 21:15:00,
2013-05-09 17:20:00,79.2,55.4,29.94,SSW,201,0.0,0.0,44,0.00,,---,0.00,VWS V14.01,2013-05-09 21:20:00,
2013-05-09 17:25:00,77.7,54.7,29.94,South,188,0.0,5.0,45,0.00,,---,0.00,VWS V14.01,2013-05-09 21:25:00,
2013-05-09 17:30:00,78.0,55.0,29.94,South,190,0.0,0.0,45,0.00,,---,0.00,VWS V14.01,2013-05-09 21:30:00,
2013-05-09 17:36:00,79.2,53.5,29.94,South,190,0.0,4.0,41,0.00,,---,0.00,VWS V14.01,2013-05-09 21:36:00,
2013-05-09 17:41:00,79.2,55.4,29.94,SSW,192,0.0,4.0,44,0.00,,---,0.00,VWS V14.01,2013-05-09 21:41:00,
2013-05-09 17:46:00,78.7,56.2,29.94,South,180,1.0,8.0,46,0.00,,---,0.00,VWS V14.01,2013-05-09 21:46:00,
2013-05-09 17:51:00,78.1,56.2,29.94,SW,217,2.0,3.0,47,0.00,,---,0.00,VWS V14.01,2013-05-09 21:51:00,
2013-05-09 17:56:00,78.4,54.7,29.94,SW,216,3.0,5.0,44,0.00,,---,0.00,VWS V14.01,2013-05-09 21:56:00,
2013-05-09 18:01:00,78.8,55.7,29.94,SW,223,3.0,4.0,45,0.00,,---,0.00,VWS V14.01,2013-05-09 22:01:00,
2013-05-09 18:06:00,79.2,54.8,29.94,South,178,0.0,4.0,43,0.00,,---,0.00,VWS V14.01,2013-05-09 22:06:00,
2013-05-09 18:11:00,79.1,52.7,29.94,SW,219,4.0,9.0,40,0.00,,---,0.00,VWS V14.01,2013-05-09 22:11:00,
2013-05-09 18:16:00,79.1,54.1,29.94,WSW,248,2.0,9.0,42,0.00,,---,0.00,VWS V14.01,2013-05-09 22:16:00,
2013-05-09 18:21:00,79.4,55.6,29.94,WSW,256,1.0,2.0,44,0.00,,---,0.00,VWS V14.01,2013-05-09 22:21:00,
2013-05-09 18:26:00,79.1,56.6,29.94,WSW,256,1.0,3.0,46,0.00,,---,0.00,VWS V14.01,2013-05-09 22:26:00,
2013-05-09 18:31:00,79.1,53.4,29.94,WSW,246,0.0,3.0,41,0.00,,---,0.00,VWS V14.01,2013-05-09 22:31:00,
2013-05-09 18:37:00,78.4,55.9,29.94,SSW,200,3.0,8.0,46,0.00,,---,0.00,VWS V14.01,2013-05-09 22:37:00,
2013-05-09 18:42:00,77.5,55.7,29.94,SSW,200,1.0,6.0,47,0.00,,---,0.00,VWS V14.01,2013-05-09 22:42:00,
2013-05-09 18:47:00,76.9,56.3,29.94,SW,216,3.0,6.0,49,0.00,,---,0.00,VWS V14.01,2013-05-09 22:47:00,
2013-05-09 18:52:00,76.6,57.7,29.94,SSW,212,0.0,1.0,52,0.00,,---,0.00,VWS V14.01,2013-05-09 22:52:00,
2013-05-09 18:57:00,76.0,57.7,29.94,SSW,212,1.0,2.0,53,0.00,,---,0.00,VWS V14.01,2013-05-09 22:57:00,
2013-05-09 19:02:00,75.9,57.0,29.94,SSW,201,0.0,5.0,52,0.00,,---,0.00,VWS V14.01,2013-05-09 23:02:00,
2013-05-09 19:07:00,75.8,57.5,29.94,SSW,207,2.0,5.0,53,0.00,,---,0.00,VWS V14.01,2013-05-09 23:07:00,
2013-05-09 19:12:00,75.5,57.2,29.94,SSW,205,1.0,1.0,53,0.00,,---,0.00,VWS V14.01,2013-05-09 23:12:00,
2013-05-09 19:17:00,75.0,57.2,29.94,SSW,205,0.0,5.0,54,0.00,,---,0.00,VWS V14.01,2013-05-09 23:17:00,
2013-05-09 19:22:00,74.4,57.7,29.94,SSW,205,0.0,3.0,56,0.00,,---,0.00,VWS V14.01,2013-05-09 23:22:00,
2013-05-09 19:27:00,74.0,57.8,29.94,SSW,202,0.0,4.0,57,0.00,,---,0.00,VWS V14.01,2013-05-09 23:27:00,
2013-05-09 19:33:00,73.5,59.2,29.94,SSW,201,0.0,0.0,61,0.00,,---,0.00,VWS V14.01,2013-05-09 23:33:00,
2013-05-09 19:38:00,73.1,58.4,29.94,SSW,201,0.0,1.0,60,0.00,,---,0.00,VWS V14.01,2013-05-09 23:38:00,
2013-05-09 19:43:00,72.9,59.6,29.94,SSW,201,0.0,1.0,63,0.00,,---,0.00,VWS V14.01,2013-05-09 23:43:00,
2013-05-09 19:48:00,72.8,58.6,29.95,SSW,202,0.0,1.0,61,0.00,,---,0.00,VWS V14.01,2013-05-09 23:48:00,
2013-05-09 19:53:00,72.3,58.6,29.95,SSW,201,0.0,0.0,62,0.00,,---,0.00,VWS V14.01,2013-05-09 23:53:00,
2013-05-09 19:58:00,72.2,58.0,29.95,SSW,202,0.0,1.0,61,0.00,,---,0.00,VWS V14.01,2013-05-09 23:58:00,
2013-05-09 20:03:00,72.0,59.2,29.96,SSW,201,0.0,0.0,64,0.00,,---,0.00,VWS V14.01,2013-05-10 00:03:00,
2013-05-09 20:08:00,70.9,59.4,29.96,SSW,202,0.0,0.0,67,0.00,,---,0.00,VWS V14.01,2013-05-10 00:08:00,
2013-05-09 20:13:00,69.7,59.9,29.96,SSW,202,0.0,0.0,71,0.00,,---,0.00,VWS V14.01,2013-05-10 00:13:00,
2013-05-09 20:18:00,68.6,59.6,29.96,SSW,201,0.0,0.0,73,0.00,,---,0.00,VWS V14.01,2013-05-10 00:18:00,
2013-05-09 20:23:00,68.0,59.8,29.96,SSW,202,0.0,1.0,75,0.00,,---,0.00,VWS V14.01,2013-05-10 00:23:00,
2013-05-09 20:28:00,67.6,59.0,29.96,SSW,202,0.0,1.0,74,0.00,,---,0.00,VWS V14.01,2013-05-10 00:28:00,
2013-05-09 20:33:00,67.3,58.7,29.97,SSW,202,0.0,0.0,74,0.00,,---,0.00,VWS V14.01,2013-05-10 00:33:00,
2013-05-09 20:39:00,66.9,59.1,29.97,SSW,201,0.0,0.0,76,0.00,,---,0.00,VWS V14.01,2013-05-10 00:39:00,
2013-05-09 20:44:00,66.5,59.1,29.97,SSW,202,0.0,0.0,77,0.00,,---,0.00,VWS V14.01,2013-05-10 00:44:00,
2013-05-09 20:49:00,66.4,58.6,29.97,SSW,201,0.0,0.0,76,0.00,,---,0.00,VWS V14.01,2013-05-10 00:49:00,
2013-05-09 20:54:00,66.1,58.3,29.97,SSW,202,0.0,0.0,76,0.00,,---,0.00,VWS V14.01,2013-05-10 00:54:00,
2013-05-09 20:59:00,66.3,58.5,29.98,SSW,201,0.0,3.0,76,0.00,,---,0.00,VWS V14.01,2013-05-10 00:59:00,
2013-05-09 21:04:00,66.2,58.0,29.98,SSW,201,0.0,0.0,75,0.00,,---,0.00,VWS V14.01,2013-05-10 01:04:00,
2013-05-09 21:09:00,65.9,58.1,29.98,SSW,202,0.0,0.0,76,0.00,,---,0.00,VWS V14.01,2013-05-10 01:09:00,
2013-05-09 21:14:00,65.7,58.3,29.98,SSW,202,0.0,0.0,77,0.00,,---,0.00,VWS V14.01,2013-05-10 01:14:00,
2013-05-09 21:19:00,65.3,58.3,29.98,SSW,201,0.0,0.0,78,0.00,,---,0.00,VWS V14.01,2013-05-10 01:19:00,
2013-05-09 21:24:00,64.9,58.2,29.98,SSW,201,0.0,0.0,79,0.00,,---,0.00,VWS V14.01,2013-05-10 01:24:00,
2013-05-09 21:30:00,64.6,58.3,29.98,SSW,201,0.0,0.0,80,0.00,,---,0.00,VWS V14.01,2013-05-10 01:30:00,
2013-05-09 21:35:00,64.3,58.7,29.98,SSW,201,0.0,0.0,82,0.00,,---,0.00,VWS V14.01,2013-05-10 01:35:00,
2013-05-09 21:40:00,64.0,58.4,29.98,SSW,201,0.0,0.0,82,0.00,,---,0.00,VWS V14.01,2013-05-10 01:40:00,
2013-05-09 21:45:00,63.7,58.1,29.99,SSW,202,0.0,0.0,82,0.00,,---,0.00,VWS V14.01,2013-05-10 01:45:00,
2013-05-09 21:50:00,63.5,58.2,29.99,SSW,201,0.0,0.0,83,0.00,,---,0.00,VWS V14.01,2013-05-10 01:50:00,
2013-05-09 21:55:00,63.5,58.2,29.99,SSW,201,0.0,0.0,83,0.00,,---,0.00,VWS V14.01,2013-05-10 01:55:00,
2013-05-09 22:00:00,63.5,57.9,30.00,SSW,202,0.0,0.0,82,0.00,,---,0.00,VWS V14.01,2013-05-10 02:00:00,
2013-05-09 22:05:00,63.7,58.1,30.00,SSW,201,0.0,0.0,82,0.00,,---,0.00,VWS V14.01,2013-05-10 02:05:00,
2013-05-09 22:10:00,64.0,58.4,30.00,SSW,202,0.0,0.0,82,0.00,,---,0.00,VWS V14.01,2013-05-10 02:10:00,
2013-05-09 22:15:00,64.8,57.8,30.00,SSW,201,1.0,2.0,78,0.00,,---,0.00,VWS V14.01,2013-05-10 02:15:00,
2013-05-09 22:20:00,65.7,57.9,30.00,SSW,201,0.0,0.0,76,0.00,,---,0.00,VWS V14.01,2013-05-10 02:20:00,
2013-05-09 22:25:00,65.8,57.7,30.00,SSW,201,0.0,2.0,75,0.00,,---,0.00,VWS V14.01,2013-05-10 02:25:00,
2013-05-09 22:30:00,65.3,58.3,30.00,SSW,201,0.0,0.0,78,0.00,,---,0.00,VWS V14.01,2013-05-10 02:30:00,
2013-05-09 22:36:00,64.8,58.8,30.00,SSW,201,0.0,2.0,81,0.00,,---,0.00,VWS V14.01,2013-05-10 02:36:00,
2013-05-09 22:41:00,64.2,58.6,30.00,SSW,201,1.0,2.0,82,0.00,,---,0.00,VWS V14.01,2013-05-10 02:41:00,
2013-05-09 22:46:00,64.0,58.1,30.00,SSW,201,0.0,3.0,81,0.00,,---,0.00,VWS V14.01,2013-05-10 02:46:00,
2013-05-09 22:51:00,64.9,57.5,30.00,SSW,201,2.0,2.0,77,0.00,,---,0.00,VWS V14.01,2013-05-10 02:51:00,
2013-05-09 22:56:00,65.6,57.5,30.00,SSW,201,0.0,2.0,75,0.00,,---,0.00,VWS V14.01,2013-05-10 02:56:00,
2013-05-09 23:01:00,65.9,57.4,30.00,SSW,201,2.0,3.0,74,0.00,,---,0.00,VWS V14.01,2013-05-10 03:01:00,
2013-05-09 23:06:00,66.1,57.6,30.00,SSW,202,0.0,3.0,74,0.00,,---,0.00,VWS V14.01,2013-05-10 03:06:00,
2013-05-09 23:11:00,65.9,57.4,30.00,SSW,201,3.0,3.0,74,0.00,,---,0.00,VWS V14.01,2013-05-10 03:11:00,
2013-05-09 23:16:00,65.8,57.3,30.00,SSW,204,1.0,4.0,74,0.00,,---,0.00,VWS V14.01,2013-05-10 03:16:00,
2013-05-09 23:21:00,66.0,57.1,30.00,SSW,205,0.0,1.0,73,0.00,,---,0.00,VWS V14.01,2013-05-10 03:21:00,
2013-05-09 23:26:00,66.1,57.2,30.00,SSW,205,0.0,3.0,73,0.00,,---,0.00,VWS V14.01,2013-05-10 03:26:00,
2013-05-09 23:32:00,65.8,56.9,29.99,SSW,205,2.0,3.0,73,0.00,,---,0.00,VWS V14.01,2013-05-10 03:32:00,
2013-05-09 23:37:00,65.4,56.9,29.99,SSW,205,0.0,3.0,74,0.00,,---,0.00,VWS V14.01,2013-05-10 03:37:00,
2013-05-09 23:42:00,65.2,57.1,29.99,SSW,205,0.0,0.0,75,0.00,,---,0.00,VWS V14.01,2013-05-10 03:42:00,
2013-05-09 23:47:00,65.0,56.9,30.00,SSW,205,0.0,1.0,75,0.00,,---,0.00,VWS V14.01,2013-05-10 03:47:00,
2013-05-09 23:52:00,64.8,57.1,30.00,SSW,205,0.0,0.0,76,0.00,,---,0.00,VWS V14.01,2013-05-10 03:52:00,
2013-05-09 23:57:00,63.9,57.6,30.00,SSW,205,0.0,0.0,80,0.00,,---,0.00,VWS V14.01,2013-05-10 03:57:00,